createdAt,value
2023-03-03T00:03:10.637Z,6.50
2023-03-03T00:08:12.595Z,7.35
2023-03-03T00:13:23.077Z,6.43
2023-03-03T00:18:35.823Z,6.38
2023-03-03T00:23:40.568Z,6.40
2023-03-03T00:28:48.374Z,6.53
2023-03-03T00:33:55.002Z,6.38
2023-03-03T00:39:10.169Z,6.28
2023-03-03T00:44:42.996Z,6.82
2023-03-03T00:49:44.877Z,6.60
2023-03-03T00:54:46.951Z,6.80
2023-03-03T00:59:48.718Z,5.95
2023-03-03T01:04:53.218Z,7.00
2023-03-03T01:09:55.014Z,6.78
2023-03-03T01:14:57.311Z,6.07
2023-03-03T01:19:59.184Z,6.50
2023-03-03T01:25:03.445Z,6.00
2023-03-03T01:30:07.287Z,6.32
2023-03-03T01:35:09.406Z,6.63
2023-03-03T01:40:17.094Z,7.20
2023-03-03T01:45:21.627Z,6.50
2023-03-03T01:50:35.091Z,6.43
2023-03-03T01:55:39.434Z,6.43
2023-03-03T02:00:43.771Z,6.22
2023-03-03T02:05:45.626Z,6.07
2023-03-03T02:10:48.801Z,5.90
2023-03-03T02:15:50.797Z,5.88
2023-03-03T02:20:59.632Z,5.95
2023-03-03T02:26:14.011Z,6.38
2023-03-03T02:31:19.352Z,6.15
2023-03-03T02:36:30.739Z,5.68
2023-03-03T02:41:57.234Z,6.85
2023-03-03T02:47:04.206Z,5.93
2023-03-03T02:52:11.685Z,6.68
2023-03-03T02:57:16.215Z,6.35
2023-03-03T03:02:19.358Z,6.65
2023-03-03T03:07:21.740Z,6.85
2023-03-03T03:12:23.799Z,7.20
2023-03-03T03:17:28.901Z,6.45
2023-03-03T03:22:30.678Z,6.80
2023-03-03T03:27:32.700Z,6.28
2023-03-03T03:32:34.738Z,6.82
2023-03-03T03:37:36.702Z,6.28
2023-03-03T03:42:39.656Z,5.93
2023-03-03T03:47:42.757Z,7.10
2023-03-03T03:52:44.860Z,7.80
2023-03-03T03:57:47.783Z,7.30
2023-03-03T04:02:50.667Z,6.97
2023-03-03T04:07:53.696Z,7.05
2023-03-03T04:12:55.666Z,6.15
2023-03-03T04:17:59.060Z,5.95
2023-03-03T04:23:01.574Z,6.43
2023-03-03T04:28:05.632Z,7.15
2023-03-03T04:33:07.998Z,7.03
2023-03-03T04:38:12.902Z,7.18
2023-03-03T04:43:15.983Z,6.68
2023-03-03T04:48:17.914Z,7.20
2023-03-03T04:53:19.814Z,6.80
2023-03-03T04:58:22.040Z,6.38
2023-03-03T05:03:25.002Z,6.53
2023-03-03T05:08:26.972Z,7.15
2023-03-03T05:13:29.052Z,6.88
2023-03-03T05:18:30.827Z,6.60
2023-03-03T05:23:32.676Z,7.90
2023-03-03T05:28:34.485Z,8.02
2023-03-03T05:33:36.301Z,9.68
2023-03-03T05:38:38.316Z,7.78
2023-03-03T05:43:40.551Z,8.75
2023-03-03T05:48:43.001Z,7.15
2023-03-03T05:53:44.831Z,8.18
2023-03-03T05:58:46.658Z,8.85
2023-03-03T06:03:48.371Z,10.10
2023-03-03T06:08:50.188Z,8.25
2023-03-03T06:13:52.065Z,8.18
2023-03-03T06:18:53.904Z,8.13
2023-03-03T06:23:55.780Z,8.50
2023-03-03T06:28:57.602Z,12.07
2023-03-03T06:33:59.363Z,8.73
2023-03-03T06:39:01.173Z,9.82
2023-03-03T06:44:03.325Z,8.45
2023-03-03T06:49:05.326Z,8.18
2023-03-03T06:54:21.629Z,10.45
2023-03-03T06:59:23.836Z,14.75
2023-03-03T07:04:33.891Z,16.35
2023-03-03T07:09:35.732Z,20.60
2023-03-03T07:14:46.447Z,19.08
2023-03-03T07:19:48.762Z,19.33
2023-03-03T07:24:57.317Z,18.13
2023-03-03T07:30:29.517Z,18.95
2023-03-03T07:35:41.108Z,18.67
2023-03-03T07:40:49.326Z,18.90
2023-03-03T07:45:51.653Z,19.92
2023-03-03T07:50:53.455Z,19.00
2023-03-03T07:55:55.905Z,19.67
2023-03-03T08:01:35.293Z,19.27
2023-03-03T08:06:37.118Z,20.67
2023-03-03T08:11:52.440Z,20.77
2023-03-03T08:16:55.327Z,20.77
2023-03-03T08:22:09.267Z,20.95
2023-03-03T08:27:11.658Z,22.83
2023-03-03T08:32:13.552Z,22.58
2023-03-03T08:37:15.353Z,25.23
2023-03-03T08:42:17.102Z,23.33
2023-03-03T08:47:18.917Z,22.75
2023-03-03T08:52:20.974Z,23.52
2023-03-03T08:57:22.856Z,21.85
2023-03-03T09:02:24.824Z,21.88
2023-03-03T09:07:26.705Z,20.60
2023-03-03T09:12:35.204Z,20.48
2023-03-03T09:17:38.207Z,19.95
2023-03-03T09:22:40.140Z,21.42
2023-03-03T09:27:42.017Z,21.08
2023-03-03T09:32:43.992Z,18.85
2023-03-03T09:37:48.102Z,20.63
2023-03-03T09:43:04.073Z,20.40
2023-03-03T09:48:32.383Z,22.90
2023-03-03T09:54:04.618Z,22.10
2023-03-03T09:59:35.746Z,20.83
2023-03-03T10:04:43.855Z,20.73
2023-03-03T10:10:23.211Z,19.65
2023-03-03T10:15:30.948Z,19.17
2023-03-03T10:20:59.570Z,18.58
2023-03-03T10:31:32.244Z,18.67
2023-03-03T10:36:46.678Z,19.25
2023-03-03T10:42:17.127Z,19.33
2023-03-03T10:47:47.134Z,19.65
2023-03-03T10:52:55.045Z,18.38
2023-03-03T11:03:19.227Z,17.38
2023-03-03T11:08:26.594Z,18.15
2023-03-03T11:13:31.063Z,19.80
2023-03-03T11:18:41.850Z,20.85
2023-03-03T11:24:02.930Z,18.02
2023-03-03T11:29:24.263Z,18.88
2023-03-03T11:34:50.450Z,20.42
2023-03-03T11:39:55.736Z,22.15
2023-03-03T11:45:11.231Z,20.83
2023-03-03T11:50:43.744Z,22.42
2023-03-03T11:55:52.561Z,22.77
2023-03-03T12:01:06.403Z,19.58
2023-03-03T12:06:40.646Z,20.15
2023-03-03T12:11:49.452Z,21.27
2023-03-03T12:16:54.296Z,21.25
2023-03-03T12:22:26.884Z,22.40
2023-03-03T12:27:47.931Z,21.50
2023-03-03T12:33:10.969Z,19.73
2023-03-03T12:38:31.295Z,20.52
2023-03-03T12:44:16.720Z,21.50
2023-03-03T12:49:19.121Z,20.98
2023-03-03T12:54:27.007Z,20.48
2023-03-03T13:00:06.984Z,21.00
2023-03-03T13:05:29.853Z,21.80
2023-03-03T13:10:41.898Z,20.65
2023-03-03T13:16:06.149Z,21.35
2023-03-03T13:21:17.152Z,20.23
2023-03-03T13:26:47.715Z,19.85
2023-03-03T13:31:56.966Z,19.85
2023-03-03T13:37:32.102Z,21.42
2023-03-03T13:42:41.615Z,20.42
2023-03-03T13:47:48.424Z,19.85
2023-03-03T13:52:57.877Z,21.23
2023-03-03T13:58:10.755Z,20.67
2023-03-03T14:03:43.670Z,20.85
2023-03-03T14:09:17.089Z,19.55
2023-03-03T14:14:36.864Z,20.52
2023-03-03T14:19:50.896Z,18.88
2023-03-03T14:25:12.215Z,21.42
2023-03-03T14:30:23.830Z,18.92
2023-03-03T14:35:32.253Z,19.17
2023-03-03T14:40:37.779Z,19.67
2023-03-03T14:45:41.662Z,21.02
2023-03-03T14:50:52.651Z,21.63
2023-03-03T14:55:54.668Z,21.60
2023-03-03T15:01:33.134Z,22.52
2023-03-03T15:06:43.833Z,22.27
2023-03-03T15:11:45.939Z,21.92
2023-03-03T15:16:47.933Z,19.02
2023-03-03T15:22:07.885Z,18.95
2023-03-03T15:27:25.863Z,19.02
2023-03-03T15:32:34.542Z,18.40
2023-03-03T15:38:02.842Z,16.48
2023-03-03T15:43:27.419Z,16.95
2023-03-03T15:48:41.893Z,16.35
2023-03-03T15:54:20.521Z,14.55
2023-03-03T15:59:30.745Z,15.82
2023-03-03T16:04:37.305Z,15.77
2023-03-03T16:10:03.891Z,15.70
2023-03-03T16:15:11.806Z,15.05
2023-03-03T16:25:34.747Z,14.25
2023-03-03T16:30:56.638Z,12.02
2023-03-03T16:36:07.216Z,12.60
2023-03-03T16:41:37.688Z,13.50
2023-03-03T16:46:48.327Z,13.68
2023-03-03T16:51:56.332Z,14.80
2023-03-03T17:07:51.608Z,13.15
2023-03-03T17:13:15.820Z,13.90
2023-03-03T17:18:40.450Z,13.63
2023-03-03T17:24:16.175Z,14.20
2023-03-03T17:29:43.355Z,13.82
2023-03-03T17:35:08.611Z,13.93
2023-03-03T17:40:42.286Z,15.55
2023-03-03T17:45:48.050Z,15.30
2023-03-03T17:51:31.577Z,16.45
2023-03-03T17:56:57.819Z,15.63
2023-03-03T18:02:21.513Z,17.70
2023-03-03T18:07:35.186Z,15.77
2023-03-03T18:12:52.143Z,16.05
2023-03-03T18:18:02.719Z,15.40
2023-03-03T18:23:31.548Z,16.23
2023-03-03T18:28:49.395Z,16.20
2023-03-03T18:34:22.965Z,16.85
2023-03-03T18:39:48.620Z,15.75
2023-03-03T18:44:50.401Z,17.02
2023-03-03T18:50:17.472Z,16.65
2023-03-03T18:55:19.274Z,16.73
2023-03-03T19:00:29.514Z,16.30
2023-03-03T19:05:46.280Z,15.95
2023-03-03T19:10:54.528Z,15.40
2023-03-03T19:15:59.299Z,17.05
2023-03-03T19:21:11.649Z,15.57
2023-03-03T19:26:25.716Z,16.73
2023-03-03T19:31:40.508Z,15.80
2023-03-03T19:37:03.118Z,14.90
2023-03-03T19:42:25.654Z,15.15
2023-03-03T19:47:30.534Z,14.52
2023-03-03T19:53:15.073Z,15.13
2023-03-03T19:58:29.245Z,14.68
2023-03-03T20:03:55.378Z,14.40
2023-03-03T20:09:05.001Z,14.68
2023-03-03T20:14:44.342Z,14.52
2023-03-03T20:19:56.099Z,13.98
2023-03-03T20:25:15.489Z,12.93
2023-03-03T20:30:36.685Z,17.20
2023-03-03T20:35:48.835Z,15.57
2023-03-03T20:40:58.737Z,15.75
2023-03-03T20:46:11.548Z,15.07
2023-03-03T20:51:28.620Z,15.00
2023-03-03T20:56:49.411Z,13.10
2023-03-03T21:02:04.536Z,14.32
2023-03-03T21:07:06.397Z,13.35
2023-03-03T21:12:26.619Z,13.63
2023-03-03T21:17:31.197Z,14.10
2023-03-03T21:22:33.648Z,13.13
2023-03-03T21:27:39.223Z,14.73
2023-03-03T21:32:43.682Z,14.73
2023-03-03T21:37:55.130Z,14.80
2023-03-03T21:42:58.958Z,14.68
2023-03-03T21:48:03.575Z,14.07
2023-03-03T21:53:05.458Z,14.27
2023-03-03T21:58:07.262Z,13.23
2023-03-03T22:03:09.389Z,14.82
2023-03-03T22:08:11.259Z,13.63
2023-03-03T22:13:14.059Z,12.70
2023-03-03T22:18:20.792Z,12.80
2023-03-03T22:23:22.548Z,13.80
2023-03-03T22:28:24.439Z,13.38
2023-03-03T22:33:26.236Z,11.50
2023-03-03T22:38:27.952Z,12.13
2023-03-03T22:43:29.771Z,11.90
2023-03-03T22:48:32.183Z,13.13
2023-03-03T22:53:34.020Z,13.15
2023-03-03T22:58:35.869Z,12.27
2023-03-03T23:03:37.853Z,12.15
2023-03-03T23:08:39.629Z,12.88
2023-03-03T23:13:41.514Z,11.95
2023-03-03T23:18:43.334Z,11.10
2023-03-03T23:23:45.083Z,10.90
2023-03-03T23:28:46.881Z,11.68
2023-03-03T23:33:48.652Z,11.90
2023-03-03T23:38:50.647Z,10.68
2023-03-03T23:43:52.448Z,11.20
2023-03-03T23:48:54.199Z,12.23
2023-03-03T23:53:56.530Z,12.05
2023-03-03T23:58:58.290Z,11.38
